Time;durP1;ratioP1;P1;durP2;ratioP2;P2;SDS_P1;SDS_P2;PMS_P1;PMS_P2;Temp;Humidity;BMP_temperature;BMP_pressure;BME280_temperature;BME280_humidity;BME280_pressure;Samples;Min_cycle;Max_cycle;Signal;HPM_P1;HPM_P2
2020/12/05 00:01:14;;;;;;;;;;;1.60;99.90;;;;;;5016801;28;19963;-88
2020/12/05 00:03:42;;;;;;;;;;;1.70;99.90;;;;;;5016948;28;19916;-88
2020/12/05 00:06:07;;;;;;;;;;;1.60;99.90;;;;;;5016713;28;19916;-88
2020/12/05 00:08:38;;;;;;;;;;;1.70;99.90;;;;;;5016875;28;19909;-89
2020/12/05 00:11:03;;;;;;;;;;;1.70;99.90;;;;;;5034246;28;20361;-88
2020/12/05 00:13:29;;;;;;;;;;;1.70;99.90;;;;;;5016612;28;19916;-88
2020/12/05 00:15:55;;;;;;;;;;;1.70;99.90;;;;;;5016686;28;20375;-88
2020/12/05 00:18:22;;;;;;;;;;;1.70;99.90;;;;;;5017186;28;19916;-88
2020/12/05 00:20:50;;;;;;;;;;;1.70;99.90;;;;;;5016671;28;19909;-88
2020/12/05 00:23:16;;;;;;;;;;;1.70;99.90;;;;;;5016824;28;19956;-88
2020/12/05 00:25:41;;;;;;;;;;;1.70;99.90;;;;;;5016596;28;19957;-89
2020/12/05 00:28:07;;;;;;;;;;;1.70;99.90;;;;;;5016167;28;20366;-88
2020/12/05 00:30:37;;;;;;;;;;;1.70;99.90;;;;;;5016410;28;19956;-88
2020/12/05 00:33:03;;;;;;;;;;;1.70;99.90;;;;;;5016641;28;19913;-89
2020/12/05 00:35:28;;;;;;;;;;;1.70;99.90;;;;;;5016605;28;20288;-88
2020/12/05 00:37:55;;;;;;;;;;;1.70;99.90;;;;;;5016470;28;19918;-88
2020/12/05 00:40:23;;;;;;;;;;;1.80;99.90;;;;;;5016374;28;19928;-89
2020/12/05 00:42:49;;;;;;;;;;;1.70;99.90;;;;;;5016292;28;19909;-88
2020/12/05 00:45:15;;;;;;;;;;;1.80;99.90;;;;;;5016560;28;20004;-89
2020/12/05 00:47:40;;;;;;;;;;;1.80;99.90;;;;;;5016295;28;19909;-88
2020/12/05 00:50:08;;;;;;;;;;;1.80;99.90;;;;;;5016259;28;19913;-87
2020/12/05 00:52:34;;;;;;;;;;;1.80;99.90;;;;;;5016171;28;19916;-87
2020/12/05 00:54:59;;;;;;;;;;;1.80;99.90;;;;;;5018139;28;19913;-88
2020/12/05 00:57:25;;;;;;;;;;;1.80;99.90;;;;;;5020339;28;20102;-88
2020/12/05 00:59:51;;;;;;;;;;;1.80;99.90;;;;;;5020444;28;20012;-88
2020/12/05 01:02:16;;;;;;;;;;;1.80;99.90;;;;;;5020605;28;20006;-88
2020/12/05 01:04:44;;;;;;;;;;;1.70;99.90;;;;;;5020355;28;19983;-88
2020/12/05 01:07:10;;;;;;;;;;;1.80;99.90;;;;;;5020180;28;20085;-88
2020/12/05 01:09:38;;;;;;;;;;;1.70;99.90;;;;;;5019945;28;19920;-88
2020/12/05 01:12:06;;;;;;;;;;;1.80;99.90;;;;;;5019787;28;19996;-89
2020/12/05 01:14:34;;;;;;;;;;;1.80;99.90;;;;;;5019861;28;19940;-89
2020/12/05 01:17:02;;;;;;;;;;;1.80;99.90;;;;;;5020015;28;19913;-89
2020/12/05 01:19:27;;;;;;;;;;;1.80;99.90;;;;;;5019867;28;20238;-88
2020/12/05 01:21:55;;;;;;;;;;;1.80;99.90;;;;;;5020703;28;20019;-89
2020/12/05 01:24:21;;;;;;;;;;;1.80;99.90;;;;;;5020483;28;19955;-89
2020/12/05 01:26:46;;;;;;;;;;;1.80;99.90;;;;;;5020201;28;20284;-88
2020/12/05 01:29:12;;;;;;;;;;;1.70;99.90;;;;;;5017107;28;19947;-88
2020/12/05 01:31:40;;;;;;;;;;;1.70;99.90;;;;;;5016911;28;19913;-89
2020/12/05 01:34:08;;;;;;;;;;;1.70;99.90;;;;;;5017723;28;20395;-89
2020/12/05 01:36:34;;;;;;;;;;;1.80;99.90;;;;;;5017953;28;19913;-87
2020/12/05 01:39:02;;;;;;;;;;;1.80;99.90;;;;;;5016836;28;19940;-89
2020/12/05 01:41:27;;;;;;;;;;;1.80;99.90;;;;;;5016962;28;20281;-91
2020/12/05 01:43:53;;;;;;;;;;;1.80;99.90;;;;;;5016798;28;19910;-88
2020/12/05 01:46:25;;;;;;;;;;;1.90;99.90;;;;;;5016747;28;19914;-89
2020/12/05 01:48:51;;;;;;;;;;;1.90;99.90;;;;;;5016601;28;19910;-88
2020/12/05 01:51:16;;;;;;;;;;;1.90;99.90;;;;;;5016301;28;20351;-88
2020/12/05 01:53:44;;;;;;;;;;;1.90;99.90;;;;;;5017484;28;19949;-88
2020/12/05 01:56:10;;;;;;;;;;;1.90;99.90;;;;;;5017609;28;19918;-89
2020/12/05 01:58:35;;;;;;;;;;;1.90;99.90;;;;;;5016455;28;19913;-87
2020/12/05 02:01:01;;;;;;;;;;;2.00;99.90;;;;;;5016234;28;19909;-89
2020/12/05 02:03:29;;;;;;;;;;;2.00;99.90;;;;;;5016235;28;19917;-88
2020/12/05 02:06:01;;;;;;;;;;;1.90;99.90;;;;;;5016511;28;19913;-88
2020/12/05 02:08:33;;;;;;;;;;;2.00;99.90;;;;;;5016107;28;19910;-87
2020/12/05 02:11:00;;;;;;;;;;;1.90;99.90;;;;;;5016254;28;19910;-87
2020/12/05 02:13:29;;;;;;;;;;;2.00;99.90;;;;;;5016420;28;19914;-88
2020/12/05 02:15:55;;;;;;;;;;;2.00;99.90;;;;;;5016113;28;19914;-86
2020/12/05 02:18:23;;;;;;;;;;;2.00;99.90;;;;;;5016045;28;20010;-88
2020/12/05 02:20:52;;;;;;;;;;;1.90;99.90;;;;;;5015842;28;19916;-87
2020/12/05 02:23:18;;;;;;;;;;;1.90;99.90;;;;;;5016024;28;19956;-87
2020/12/05 02:25:49;;;;;;;;;;;1.90;99.90;;;;;;5017037;28;19916;-87
2020/12/05 02:28:19;;;;;;;;;;;1.80;99.90;;;;;;5015808;28;19911;-86
2020/12/05 02:30:45;;;;;;;;;;;1.90;99.90;;;;;;5036093;28;19944;-87
2020/12/05 02:33:10;;;;;;;;;;;1.90;99.90;;;;;;5018889;28;19909;-87
2020/12/05 02:35:38;;;;;;;;;;;1.90;99.90;;;;;;5018959;28;19913;-87
2020/12/05 02:38:10;;;;;;;;;;;1.90;99.90;;;;;;5018888;28;19913;-87
2020/12/05 02:40:35;;;;;;;;;;;1.90;99.90;;;;;;5018824;28;19920;-87
2020/12/05 02:43:03;;;;;;;;;;;1.90;99.90;;;;;;5036274;28;19991;-87
2020/12/05 02:45:29;;;;;;;;;;;1.90;99.90;;;;;;5018561;28;20016;-87
2020/12/05 02:47:55;;;;;;;;;;;1.90;99.90;;;;;;5018744;28;19953;-87
2020/12/05 02:50:20;;;;;;;;;;;1.90;99.90;;;;;;5018757;28;19909;-87
2020/12/05 02:52:48;;;;;;;;;;;1.90;99.90;;;;;;5018616;28;19909;-88
2020/12/05 02:55:14;;;;;;;;;;;1.90;99.90;;;;;;5018746;28;19963;-88
2020/12/05 02:57:42;;;;;;;;;;;1.90;99.90;;;;;;5018829;28;19913;-89
2020/12/05 03:00:07;;;;;;;;;;;1.90;99.90;;;;;;5018281;28;19916;-88
2020/12/05 03:02:33;;;;;;;;;;;1.90;99.90;;;;;;5018039;28;19910;-88
2020/12/05 03:05:01;;;;;;;;;;;1.90;99.90;;;;;;5018506;28;19927;-89
2020/12/05 03:07:29;;;;;;;;;;;1.80;99.90;;;;;;5018109;28;19909;-89
2020/12/05 03:09:54;;;;;;;;;;;1.80;99.90;;;;;;5018031;28;19909;-88
2020/12/05 03:12:23;;;;;;;;;;;1.90;99.90;;;;;;5018207;28;20250;-88
2020/12/05 03:14:49;;;;;;;;;;;1.80;99.90;;;;;;5017874;28;19913;-87
2020/12/05 03:17:17;;;;;;;;;;;1.80;99.90;;;;;;5017692;28;20257;-87
2020/12/05 03:19:42;;;;;;;;;;;1.80;99.90;;;;;;5017698;28;20191;-87
2020/12/05 03:22:10;;;;;;;;;;;1.80;99.90;;;;;;5017843;28;19995;-87
2020/12/05 03:24:36;;;;;;;;;;;1.80;99.90;;;;;;5018351;28;19913;-87
2020/12/05 03:27:04;;;;;;;;;;;1.80;99.90;;;;;;5018064;28;19974;-87
2020/12/05 03:29:30;;;;;;;;;;;1.80;99.90;;;;;;5017777;28;19975;-87
2020/12/05 03:32:03;;;;;;;;;;;1.80;99.90;;;;;;5017926;28;19991;-86
2020/12/05 03:34:28;;;;;;;;;;;1.80;99.90;;;;;;5017787;28;19913;-86
2020/12/05 03:36:54;;;;;;;;;;;1.80;99.90;;;;;;5017640;28;19920;-87
2020/12/05 03:39:19;;;;;;;;;;;1.80;99.90;;;;;;5035160;28;19910;-86
2020/12/05 03:41:45;;;;;;;;;;;1.80;99.90;;;;;;5017525;28;19909;-87
2020/12/05 03:44:10;;;;;;;;;;;1.80;99.90;;;;;;5017943;28;19967;-86
2020/12/05 03:46:41;;;;;;;;;;;1.80;99.90;;;;;;5017827;28;19913;-86
2020/12/05 03:49:06;;;;;;;;;;;1.70;99.90;;;;;;5017490;28;19917;-86
2020/12/05 03:51:32;;;;;;;;;;;1.80;99.90;;;;;;5017326;28;19916;-86
2020/12/05 03:53:57;;;;;;;;;;;1.80;99.90;;;;;;5017223;28;19913;-88
2020/12/05 03:56:25;;;;;;;;;;;1.80;99.90;;;;;;5017240;28;19913;-87
2020/12/05 03:58:54;;;;;;;;;;;1.80;99.90;;;;;;5017258;28;19916;-87
2020/12/05 04:01:24;;;;;;;;;;;1.80;99.90;;;;;;5017354;28;20285;-87
2020/12/05 04:03:50;;;;;;;;;;;1.80;99.90;;;;;;5017395;28;19909;-90
2020/12/05 04:06:17;;;;;;;;;;;1.80;99.90;;;;;;5017019;28;20213;-88
2020/12/05 04:08:42;;;;;;;;;;;1.80;99.90;;;;;;5017276;28;19963;-88
2020/12/05 04:11:08;;;;;;;;;;;1.80;99.90;;;;;;5017105;28;19909;-89
2020/12/05 04:13:36;;;;;;;;;;;1.80;99.90;;;;;;5017242;28;19948;-88
2020/12/05 04:16:04;;;;;;;;;;;1.80;99.90;;;;;;5017377;28;20373;-88
2020/12/05 04:18:32;;;;;;;;;;;1.80;99.90;;;;;;5017294;28;19916;-90
2020/12/05 04:20:58;;;;;;;;;;;1.80;99.90;;;;;;5017102;28;19909;-89
2020/12/05 04:23:26;;;;;;;;;;;1.80;99.90;;;;;;5017005;28;19936;-88
2020/12/05 04:25:51;;;;;;;;;;;1.80;99.90;;;;;;5017067;28;19967;-89
2020/12/05 04:28:17;;;;;;;;;;;1.90;99.90;;;;;;5017002;28;20360;-90
2020/12/05 04:30:42;;;;;;;;;;;1.80;99.90;;;;;;5016324;28;19921;-90
2020/12/05 04:33:08;;;;;;;;;;;1.90;99.90;;;;;;5016785;28;19920;-88
2020/12/05 04:35:33;;;;;;;;;;;1.90;99.90;;;;;;5016908;28;19917;-89
2020/12/05 04:37:59;;;;;;;;;;;1.90;99.90;;;;;;5016878;28;19913;-89
2020/12/05 04:40:25;;;;;;;;;;;1.90;99.90;;;;;;5016641;28;19945;-90
2020/12/05 04:42:51;;;;;;;;;;;1.80;99.90;;;;;;5017086;28;19909;-90
2020/12/05 04:45:16;;;;;;;;;;;1.90;99.90;;;;;;5016804;28;19967;-89
2020/12/05 04:47:45;;;;;;;;;;;1.90;99.90;;;;;;5016927;28;19909;-91
2020/12/05 04:50:12;;;;;;;;;;;1.90;99.90;;;;;;5016666;28;19915;-90
2020/12/05 04:52:41;;;;;;;;;;;1.90;99.90;;;;;;5016479;28;20000;-89
2020/12/05 04:55:09;;;;;;;;;;;1.90;99.90;;;;;;5016894;28;19986;-89
2020/12/05 04:57:45;;;;;;;;;;;1.90;99.90;;;;;;5016696;28;19920;-89
2020/12/05 05:00:10;;;;;;;;;;;1.80;99.90;;;;;;5016621;28;19916;-88
2020/12/05 05:02:39;;;;;;;;;;;1.80;99.90;;;;;;5016853;28;20360;-89
2020/12/05 05:05:08;;;;;;;;;;;1.80;99.90;;;;;;5016611;28;20261;-90
2020/12/05 05:07:38;;;;;;;;;;;1.80;99.90;;;;;;5016726;28;20327;-90
2020/12/05 05:10:15;;;;;;;;;;;1.80;99.90;;;;;;5017013;28;19996;-89
2020/12/05 05:12:43;;;;;;;;;;;1.80;99.90;;;;;;5016547;28;20043;-89
2020/12/05 05:15:30;;;;;;;;;;;1.80;99.90;;;;;;5016312;28;19933;-89
2020/12/05 05:18:02;;;;;;;;;;;1.80;99.90;;;;;;5017213;28;20280;-90
2020/12/05 05:20:35;;;;;;;;;;;1.80;99.90;;;;;;5034683;28;20424;-89
2020/12/05 05:23:08;;;;;;;;;;;1.70;99.90;;;;;;5016581;28;19917;-88
2020/12/05 05:25:49;;;;;;;;;;;1.70;99.90;;;;;;5017057;28;19909;-88
2020/12/05 05:28:18;;;;;;;;;;;1.70;99.90;;;;;;5016418;28;19913;-89
2020/12/05 05:31:03;;;;;;;;;;;1.80;99.90;;;;;;5016280;28;19921;-89
2020/12/05 05:33:45;;;;;;;;;;;1.80;99.90;;;;;;5016725;28;19936;-88
2020/12/05 05:36:25;;;;;;;;;;;1.80;99.90;;;;;;5016528;28;19917;-90
2020/12/05 05:39:04;;;;;;;;;;;1.80;99.90;;;;;;5016259;28;19979;-89
2020/12/05 05:41:32;;;;;;;;;;;1.80;99.90;;;;;;5017469;28;19909;-89
2020/12/05 05:43:58;;;;;;;;;;;1.80;99.90;;;;;;5019949;28;19916;-90
2020/12/05 05:46:29;;;;;;;;;;;1.80;99.90;;;;;;5019698;28;19909;-89
2020/12/05 05:48:55;;;;;;;;;;;1.80;99.90;;;;;;5019947;28;19916;-90
2020/12/05 05:51:39;;;;;;;;;;;1.80;99.90;;;;;;5019777;28;19945;-89
2020/12/05 05:54:14;;;;;;;;;;;1.80;99.90;;;;;;5019770;28;20031;-92
2020/12/05 05:57:00;;;;;;;;;;;1.80;99.90;;;;;;5019197;28;19914;-92
2020/12/05 05:59:29;;;;;;;;;;;2.00;99.90;;;;;;5018918;28;19913;-88
2020/12/05 06:01:57;;;;;;;;;;;2.10;99.90;;;;;;5019884;28;20395;-88
2020/12/05 06:04:26;;;;;;;;;;;2.10;99.90;;;;;;5019784;28;20341;-89
2020/12/05 06:06:52;;;;;;;;;;;2.20;99.90;;;;;;5019409;28;19960;-89
2020/12/05 06:09:28;;;;;;;;;;;2.20;99.90;;;;;;5019438;28;20288;-90
2020/12/05 06:11:54;;;;;;;;;;;2.20;99.90;;;;;;5019302;28;20364;-89
2020/12/05 06:14:23;;;;;;;;;;;2.20;99.90;;;;;;5019480;28;20384;-91
2020/12/05 06:16:55;;;;;;;;;;;2.20;99.90;;;;;;5027384;28;19913;-90
2020/12/05 06:19:23;;;;;;;;;;;2.20;99.90;;;;;;5027063;28;19913;-91
2020/12/05 06:21:52;;;;;;;;;;;2.20;99.90;;;;;;5034644;28;19916;-91
2020/12/05 06:24:26;;;;;;;;;;;2.20;99.90;;;;;;5036399;28;19916;-90
2020/12/05 06:29:27;;;;;;;;;;;2.30;99.90;;;;;;5224929;23;19967;-85
2020/12/05 06:31:55;;;;;;;;;;;2.30;99.90;;;;;;5058244;28;19916;-87
2020/12/05 06:34:33;;;;;;;;;;;2.30;99.90;;;;;;5058371;28;19916;-84
2020/12/05 06:39:58;;;;;;;;;;;2.20;99.90;;;;;;5118978;22;20390;-89
2020/12/05 06:42:26;;;;;;;;;;;2.20;99.90;;;;;;5466075;22;19982;-87
2020/12/05 06:50:09;;;;;;;;;;;2.20;99.90;;;;;;5665157;22;19928;-91
2020/12/05 07:06:01;;;;;;;;;;;2.00;99.90;;;;;;4763380;22;20106;-89
2020/12/05 07:08:33;;;;;;;;;;;2.00;99.90;;;;;;5433384;22;19964;-88
2020/12/05 07:11:12;;;;;;;;;;;1.90;99.90;;;;;;5014649;28;19910;-88
2020/12/05 07:13:38;;;;;;;;;;;1.90;99.90;;;;;;5014600;28;19921;-88
2020/12/05 07:16:21;;;;;;;;;;;2.00;99.90;;;;;;5006676;28;19929;-87
2020/12/05 07:18:48;;;;;;;;;;;1.90;99.90;;;;;;5005843;28;19925;-88
2020/12/05 07:21:16;;;;;;;;;;;1.90;99.90;;;;;;5006273;28;20341;-87
2020/12/05 07:23:42;;;;;;;;;;;1.90;99.90;;;;;;5005019;28;19997;-87
2020/12/05 07:26:10;;;;;;;;;;;1.90;99.90;;;;;;5002635;28;20408;-87
2020/12/05 07:28:35;;;;;;;;;;;1.90;99.90;;;;;;5005533;28;19917;-87
2020/12/05 07:31:01;;;;;;;;;;;1.90;99.90;;;;;;5002710;28;19910;-87
2020/12/05 07:33:30;;;;;;;;;;;1.90;99.90;;;;;;5002850;28;19916;-88
2020/12/05 07:35:56;;;;;;;;;;;1.80;99.90;;;;;;5005277;28;20395;-87
2020/12/05 07:38:22;;;;;;;;;;;1.80;99.90;;;;;;5000867;28;19914;-87
2020/12/05 07:40:50;;;;;;;;;;;1.90;99.90;;;;;;5003339;28;19944;-87
2020/12/05 07:43:17;;;;;;;;;;;1.90;99.90;;;;;;5010664;28;19953;-87
2020/12/05 07:45:42;;;;;;;;;;;1.80;99.90;;;;;;5013894;28;20347;-87
2020/12/05 07:48:14;;;;;;;;;;;1.90;99.90;;;;;;5014196;28;19910;-87
2020/12/05 07:50:42;;;;;;;;;;;1.90;99.90;;;;;;4997312;28;19910;-87
2020/12/05 07:53:40;;;;;;;;;;;1.90;99.90;;;;;;4994597;28;19914;-88
2020/12/05 07:56:13;;;;;;;;;;;1.90;99.90;;;;;;4972829;28;19924;-87
2020/12/05 07:58:45;;;;;;;;;;;1.90;99.90;;;;;;4995881;28;19910;-87
2020/12/05 08:01:15;;;;;;;;;;;1.90;99.90;;;;;;5001331;28;20344;-87
2020/12/05 08:03:54;;;;;;;;;;;1.90;99.90;;;;;;5002460;28;19924;-88
2020/12/05 08:06:36;;;;;;;;;;;1.90;99.90;;;;;;5006964;28;19913;-87
2020/12/05 08:09:03;;;;;;;;;;;2.00;99.90;;;;;;5010561;28;19929;-87
2020/12/05 08:11:38;;;;;;;;;;;2.00;99.90;;;;;;5002187;28;19910;-88
2020/12/05 08:14:07;;;;;;;;;;;2.00;99.90;;;;;;5004127;28;19910;-87
2020/12/05 08:16:38;;;;;;;;;;;2.00;99.90;;;;;;5003057;28;19910;-87
2020/12/05 08:19:07;;;;;;;;;;;2.00;99.90;;;;;;5003941;28;19910;-87
2020/12/05 08:21:33;;;;;;;;;;;2.10;99.90;;;;;;5004880;28;20353;-87
2020/12/05 08:24:06;;;;;;;;;;;2.10;99.90;;;;;;5011724;28;19910;-87
2020/12/05 08:26:32;;;;;;;;;;;2.10;99.90;;;;;;5013855;28;19916;-87
2020/12/05 08:28:58;;;;;;;;;;;2.20;99.90;;;;;;5013709;28;20276;-87
2020/12/05 08:31:26;;;;;;;;;;;2.10;99.90;;;;;;5013704;28;19910;-88
2020/12/05 08:33:54;;;;;;;;;;;2.10;99.90;;;;;;5013837;28;19910;-87
2020/12/05 08:36:27;;;;;;;;;;;2.10;99.90;;;;;;5013689;28;19917;-86
2020/12/05 08:38:56;;;;;;;;;;;2.10;99.90;;;;;;5013645;28;19909;-88
2020/12/05 08:41:21;;;;;;;;;;;2.10;99.90;;;;;;5013483;28;20361;-88
2020/12/05 08:43:47;;;;;;;;;;;2.10;99.90;;;;;;5013463;28;19913;-87
2020/12/05 08:46:20;;;;;;;;;;;2.10;99.90;;;;;;5013435;28;19996;-88
2020/12/05 08:48:48;;;;;;;;;;;2.20;99.90;;;;;;5010817;28;19913;-87
2020/12/05 08:51:14;;;;;;;;;;;2.20;99.90;;;;;;5008990;28;19914;-87
2020/12/05 08:53:40;;;;;;;;;;;2.20;99.90;;;;;;5008737;28;19932;-87
2020/12/05 08:56:05;;;;;;;;;;;2.30;99.90;;;;;;5013258;28;19918;-87
2020/12/05 08:58:49;;;;;;;;;;;2.30;99.90;;;;;;5013309;28;19960;-88
2020/12/05 09:01:14;;;;;;;;;;;2.30;99.90;;;;;;5013468;28;19963;-88
2020/12/05 09:03:40;;;;;;;;;;;2.30;99.90;;;;;;5013434;28;20357;-87
2020/12/05 09:06:10;;;;;;;;;;;2.30;99.90;;;;;;5013530;28;19910;-87
2020/12/05 09:08:45;;;;;;;;;;;2.40;99.90;;;;;;5018041;28;19921;-87
2020/12/05 09:11:19;;;;;;;;;;;2.40;99.90;;;;;;5013790;28;19909;-87
2020/12/05 09:13:46;;;;;;;;;;;2.40;99.90;;;;;;5014906;28;20402;-87
2020/12/05 09:16:12;;;;;;;;;;;2.50;99.90;;;;;;5010459;28;19921;-88
2020/12/05 09:18:39;;;;;;;;;;;2.50;99.90;;;;;;5016921;28;19917;-88
2020/12/05 09:21:10;;;;;;;;;;;2.50;99.90;;;;;;5019950;28;20032;-87
2020/12/05 09:23:35;;;;;;;;;;;2.50;99.90;;;;;;5017108;28;19909;-86
2020/12/05 09:26:02;;;;;;;;;;;2.50;99.90;;;;;;5017118;28;19916;-87
2020/12/05 09:28:28;;;;;;;;;;;2.50;99.90;;;;;;5018302;28;19910;-87
2020/12/05 09:30:56;;;;;;;;;;;2.50;99.90;;;;;;5017425;28;19909;-88
2020/12/05 09:33:22;;;;;;;;;;;2.50;99.90;;;;;;5017494;28;19968;-87
2020/12/05 09:35:48;;;;;;;;;;;2.60;99.90;;;;;;5019349;28;19960;-86
2020/12/05 09:38:14;;;;;;;;;;;2.60;99.90;;;;;;5004047;28;19913;-86
2020/12/05 09:40:39;;;;;;;;;;;2.60;99.90;;;;;;5017099;28;19909;-88
2020/12/05 09:43:07;;;;;;;;;;;2.70;99.90;;;;;;5028975;28;19956;-87
2020/12/05 09:45:33;;;;;;;;;;;2.70;99.90;;;;;;5018058;28;19913;-87
2020/12/05 09:47:59;;;;;;;;;;;2.70;99.90;;;;;;5019392;28;20383;-86
2020/12/05 09:50:27;;;;;;;;;;;2.80;99.90;;;;;;5017075;28;19931;-88
2020/12/05 09:52:53;;;;;;;;;;;2.80;99.90;;;;;;5018972;28;20304;-87
2020/12/05 09:55:18;;;;;;;;;;;2.80;99.90;;;;;;5016376;28;19928;-87
2020/12/05 09:57:46;;;;;;;;;;;2.80;99.90;;;;;;5015982;28;20345;-88
2020/12/05 10:00:12;;;;;;;;;;;2.80;99.90;;;;;;5016421;28;20369;-88
2020/12/05 10:02:39;;;;;;;;;;;2.80;99.90;;;;;;5017272;28;19909;-87
2020/12/05 10:05:07;;;;;;;;;;;2.80;99.90;;;;;;5018739;28;20323;-87
2020/12/05 10:07:35;;;;;;;;;;;2.80;99.90;;;;;;5016595;28;19923;-89
2020/12/05 10:10:03;;;;;;;;;;;2.90;99.90;;;;;;5017806;28;20287;-87
2020/12/05 10:12:31;;;;;;;;;;;2.90;99.90;;;;;;5017187;28;19929;-88
2020/12/05 10:14:59;;;;;;;;;;;2.90;99.90;;;;;;5017057;28;20365;-87
2020/12/05 10:17:25;;;;;;;;;;;2.90;99.90;;;;;;5016109;28;19910;-87
2020/12/05 10:19:52;;;;;;;;;;;2.90;99.90;;;;;;5015642;28;20419;-88
2020/12/05 10:22:20;;;;;;;;;;;3.00;99.90;;;;;;5026257;28;19910;-87
2020/12/05 10:24:48;;;;;;;;;;;3.00;99.90;;;;;;5016926;28;19909;-87
2020/12/05 10:27:14;;;;;;;;;;;3.00;99.90;;;;;;5017629;28;19913;-87
2020/12/05 10:29:42;;;;;;;;;;;3.00;99.90;;;;;;5017446;28;20277;-87
2020/12/05 10:32:07;;;;;;;;;;;3.10;99.90;;;;;;5017668;28;19928;-87
2020/12/05 10:34:33;;;;;;;;;;;3.10;99.90;;;;;;5015941;28;19917;-88
2020/12/05 10:37:01;;;;;;;;;;;3.10;99.90;;;;;;5017188;28;19913;-87
2020/12/05 10:39:26;;;;;;;;;;;3.10;99.90;;;;;;5016031;28;20007;-87
2020/12/05 10:41:53;;;;;;;;;;;3.10;99.90;;;;;;5017851;28;19948;-87
2020/12/05 10:44:19;;;;;;;;;;;3.10;99.90;;;;;;5016735;28;19933;-87
2020/12/05 10:46:45;;;;;;;;;;;3.10;99.90;;;;;;5015957;28;20361;-87
2020/12/05 10:49:11;;;;;;;;;;;3.20;99.90;;;;;;5026833;28;20011;-87
2020/12/05 10:51:37;;;;;;;;;;;3.10;99.90;;;;;;5018503;28;19913;-87
2020/12/05 10:54:06;;;;;;;;;;;3.10;99.90;;;;;;5018725;28;20054;-87
2020/12/05 10:56:33;;;;;;;;;;;3.10;99.90;;;;;;5036063;28;20264;-88
2020/12/05 10:58:59;;;;;;;;;;;3.10;99.90;;;;;;5018983;28;19917;-87
2020/12/05 11:01:24;;;;;;;;;;;3.10;99.90;;;;;;5018630;28;19909;-86
2020/12/05 11:03:52;;;;;;;;;;;3.10;99.90;;;;;;5018710;28;19909;-88
2020/12/05 11:06:19;;;;;;;;;;;3.10;99.90;;;;;;5018548;28;19964;-88
2020/12/05 11:08:44;;;;;;;;;;;3.10;99.90;;;;;;5018272;28;19928;-87
2020/12/05 11:11:10;;;;;;;;;;;3.10;99.90;;;;;;5018521;28;19910;-86
2020/12/05 11:13:38;;;;;;;;;;;3.10;99.90;;;;;;5018331;28;20029;-87
2020/12/05 11:16:03;;;;;;;;;;;3.20;99.90;;;;;;5018419;28;19917;-87
2020/12/05 11:18:29;;;;;;;;;;;3.10;99.90;;;;;;5014732;28;20292;-87
2020/12/05 11:20:54;;;;;;;;;;;3.20;99.90;;;;;;5015238;28;19917;-87
2020/12/05 11:23:22;;;;;;;;;;;3.20;99.90;;;;;;5014856;28;19909;-87
2020/12/05 11:25:52;;;;;;;;;;;3.20;99.90;;;;;;5014798;28;19913;-87
2020/12/05 11:28:18;;;;;;;;;;;3.20;99.90;;;;;;5014682;28;19967;-86
2020/12/05 11:30:46;;;;;;;;;;;3.20;99.90;;;;;;5014257;28;20305;-87
2020/12/05 11:33:14;;;;;;;;;;;3.30;99.90;;;;;;5014279;28;20246;-87
2020/12/05 11:35:40;;;;;;;;;;;3.40;99.90;;;;;;5014441;28;20012;-87
2020/12/05 11:38:07;;;;;;;;;;;3.40;99.90;;;;;;5013933;28;19999;-87
2020/12/05 11:40:35;;;;;;;;;;;3.40;99.90;;;;;;5013252;28;19910;-87
2020/12/05 11:43:01;;;;;;;;;;;3.40;99.90;;;;;;5014028;28;20008;-87
2020/12/05 11:45:29;;;;;;;;;;;3.40;99.90;;;;;;5013609;28;19957;-87
2020/12/05 11:47:55;;;;;;;;;;;3.40;99.90;;;;;;5014140;28;19916;-86
2020/12/05 11:50:20;;;;;;;;;;;3.50;99.90;;;;;;5013916;28;19998;-87
2020/12/05 11:52:47;;;;;;;;;;;3.40;99.90;;;;;;5014063;28;19913;-87
2020/12/05 11:55:13;;;;;;;;;;;3.40;99.90;;;;;;5014127;28;20020;-87
2020/12/05 11:57:41;;;;;;;;;;;3.50;99.90;;;;;;5013584;28;19953;-87
2020/12/05 12:00:06;;;;;;;;;;;3.50;99.90;;;;;;5015246;28;19918;-87
2020/12/05 12:02:32;;;;;;;;;;;3.50;99.90;;;;;;5013463;28;19913;-86
2020/12/05 12:04:57;;;;;;;;;;;3.50;99.90;;;;;;5014009;28;19956;-88
2020/12/05 12:07:25;;;;;;;;;;;3.40;99.90;;;;;;5013851;28;19917;-86
2020/12/05 12:09:51;;;;;;;;;;;3.40;99.90;;;;;;5013857;28;19933;-86
2020/12/05 12:12:19;;;;;;;;;;;3.40;99.90;;;;;;5024150;28;19921;-86
2020/12/05 12:14:47;;;;;;;;;;;3.50;99.90;;;;;;5016055;28;19968;-86
2020/12/05 12:17:15;;;;;;;;;;;3.50;99.90;;;;;;5016056;28;19913;-85
2020/12/05 12:19:45;;;;;;;;;;;3.50;99.90;;;;;;5016352;28;19956;-86
2020/12/05 12:22:11;;;;;;;;;;;3.50;99.90;;;;;;5015700;28;20029;-86
2020/12/05 12:24:36;;;;;;;;;;;3.60;99.90;;;;;;5015718;28;20135;-85
2020/12/05 12:27:02;;;;;;;;;;;3.60;99.90;;;;;;5015793;28;20051;-86
2020/12/05 12:29:30;;;;;;;;;;;3.60;99.90;;;;;;5016716;28;20456;-86
2020/12/05 12:31:58;;;;;;;;;;;3.60;99.90;;;;;;5016434;28;19917;-86
2020/12/05 12:34:25;;;;;;;;;;;3.60;99.90;;;;;;5016563;28;19921;-86
2020/12/05 12:36:51;;;;;;;;;;;3.60;99.90;;;;;;5016427;28;19917;-86
2020/12/05 12:39:19;;;;;;;;;;;3.60;99.90;;;;;;5016254;28;20272;-86
2020/12/05 12:41:44;;;;;;;;;;;3.60;99.90;;;;;;5016049;28;19909;-85
2020/12/05 12:44:12;;;;;;;;;;;3.60;99.90;;;;;;5016420;28;19909;-86
2020/12/05 12:46:53;;;;;;;;;;;3.60;99.90;;;;;;5015613;28;19920;-87
2020/12/05 12:49:19;;;;;;;;;;;3.60;99.90;;;;;;5013542;28;19967;-87
2020/12/05 12:51:44;;;;;;;;;;;3.60;99.90;;;;;;5015288;28;20375;-86
2020/12/05 12:54:10;;;;;;;;;;;3.60;99.90;;;;;;5015589;28;19920;-86
2020/12/05 12:56:37;;;;;;;;;;;3.60;99.90;;;;;;5015533;28;19913;-86
2020/12/05 12:59:03;;;;;;;;;;;3.60;99.90;;;;;;5015917;28;19971;-85
2020/12/05 13:01:31;;;;;;;;;;;3.60;99.90;;;;;;5015796;28;19909;-86
2020/12/05 13:03:57;;;;;;;;;;;3.60;99.90;;;;;;5015579;28;20365;-86
2020/12/05 13:06:25;;;;;;;;;;;3.60;99.90;;;;;;5015444;28;19909;-87
2020/12/05 13:08:50;;;;;;;;;;;3.60;99.90;;;;;;5015813;28;20030;-85
2020/12/05 13:11:16;;;;;;;;;;;3.60;99.90;;;;;;5015871;28;19910;-86
2020/12/05 13:13:46;;;;;;;;;;;3.60;99.90;;;;;;5015544;28;19909;-85
2020/12/05 13:16:18;;;;;;;;;;;3.60;99.90;;;;;;5015701;28;19918;-85
2020/12/05 13:18:44;;;;;;;;;;;3.60;99.90;;;;;;5015844;28;19909;-85
2020/12/05 13:21:09;;;;;;;;;;;3.60;99.90;;;;;;5015931;28;19917;-86
2020/12/05 13:23:35;;;;;;;;;;;3.60;99.90;;;;;;5015484;28;19920;-87
2020/12/05 13:26:00;;;;;;;;;;;3.60;99.90;;;;;;5015660;28;20276;-87
2020/12/05 13:28:26;;;;;;;;;;;3.60;99.90;;;;;;5015509;28;20265;-89
2020/12/05 13:30:54;;;;;;;;;;;3.60;99.90;;;;;;5015439;28;19916;-86
2020/12/05 13:33:22;;;;;;;;;;;3.60;99.90;;;;;;5015601;28;20265;-85
2020/12/05 13:35:47;;;;;;;;;;;3.60;99.90;;;;;;5024656;28;19931;-86
2020/12/05 13:38:13;;;;;;;;;;;3.70;99.90;;;;;;5012926;28;20003;-86
2020/12/05 13:40:38;;;;;;;;;;;3.60;99.90;;;;;;5012693;28;19916;-85
2020/12/05 13:43:06;;;;;;;;;;;3.60;99.90;;;;;;5013334;28;20288;-86
2020/12/05 13:45:31;;;;;;;;;;;3.60;99.90;;;;;;5015519;28;19943;-85
2020/12/05 13:47:57;;;;;;;;;;;3.60;99.90;;;;;;5015519;28;20441;-85
2020/12/05 13:50:22;;;;;;;;;;;3.70;99.90;;;;;;5015918;28;19971;-85
2020/12/05 13:52:48;;;;;;;;;;;3.70;99.90;;;;;;5015563;28;20038;-85
2020/12/05 13:55:14;;;;;;;;;;;3.70;99.90;;;;;;5015694;28;19978;-86
2020/12/05 13:57:41;;;;;;;;;;;3.70;99.90;;;;;;5015702;28;19916;-87
2020/12/05 14:00:08;;;;;;;;;;;3.70;99.90;;;;;;5015559;28;20004;-86
2020/12/05 14:02:36;;;;;;;;;;;3.70;99.90;;;;;;5016602;28;19945;-86
2020/12/05 14:05:04;;;;;;;;;;;3.70;99.90;;;;;;5018972;28;19916;-85
2020/12/05 14:07:30;;;;;;;;;;;3.70;99.90;;;;;;5019116;28;19955;-86
2020/12/05 14:09:58;;;;;;;;;;;3.70;99.90;;;;;;5007261;28;19921;-86
2020/12/05 14:12:25;;;;;;;;;;;3.70;99.90;;;;;;5004076;28;19910;-87
2020/12/05 14:14:53;;;;;;;;;;;3.70;99.90;;;;;;5005536;28;19917;-87
2020/12/05 14:17:18;;;;;;;;;;;3.70;99.90;;;;;;4996074;28;19960;-86
2020/12/05 14:19:44;;;;;;;;;;;3.60;99.90;;;;;;4997409;28;19914;-86
2020/12/05 14:22:09;;;;;;;;;;;3.60;99.90;;;;;;5006996;28;19964;-86
2020/12/05 14:24:37;;;;;;;;;;;3.60;99.90;;;;;;5011805;28;19967;-87
2020/12/05 14:27:05;;;;;;;;;;;3.60;99.90;;;;;;4995865;28;20277;-86
2020/12/05 14:29:31;;;;;;;;;;;3.60;99.90;;;;;;4995480;28;19914;-86
2020/12/05 14:31:59;;;;;;;;;;;3.60;99.90;;;;;;5011971;28;20012;-86
2020/12/05 14:34:25;;;;;;;;;;;3.60;99.90;;;;;;4995520;28;19917;-87
2020/12/05 14:36:51;;;;;;;;;;;3.60;99.90;;;;;;5014776;28;19921;-86
2020/12/05 14:39:17;;;;;;;;;;;3.60;99.90;;;;;;5014744;28;19996;-87
2020/12/05 14:41:46;;;;;;;;;;;3.60;99.90;;;;;;5014508;28;20337;-86
2020/12/05 14:44:14;;;;;;;;;;;3.50;99.90;;;;;;5014473;28;19916;-86
2020/12/05 14:46:42;;;;;;;;;;;3.50;99.90;;;;;;5004354;28;19964;-87
2020/12/05 14:49:08;;;;;;;;;;;3.50;99.90;;;;;;5005350;28;19913;-87
2020/12/05 14:51:34;;;;;;;;;;;3.50;99.90;;;;;;5007355;28;19910;-86
2020/12/05 14:54:02;;;;;;;;;;;3.50;99.90;;;;;;5005436;28;19960;-86
2020/12/05 14:56:30;;;;;;;;;;;3.50;99.90;;;;;;5005700;28;19960;-86
2020/12/05 14:58:55;;;;;;;;;;;3.50;99.90;;;;;;5003915;28;20393;-86